Terminal Aerodrome Forecast
Issued by NWS Shreveport, LA

Current Version | Previous Version | Text Only | Print | Product List | Glossary On
Versions: 1 2 3 4 5 6 7 8 9 10 11 12 13 14 15 16 17 18 19 20 21
000
FTUS44 KSHV 022300
TAFTYR
TAF
KTYR 022330Z 0300/0324 06005KT 1SM BR OVC003
      TEMPO 0300/0303 3SM BR OVC005
     FM030600 10004KT 4SM BR OVC002
     FM031300 15006KT P6SM OVC010
     FM031700 18010KT P6SM BKN015=

USA.gov is the U.S. government's official web portal to all federal, state and local government web resources and services.